Terminal Aerodrome Forecast
Issued by NWS Mt. Holly, NJ

Home | Current Version | Previous Version | Text Only | Print | Product List | Glossary On
Versions: 1 2 3 4 5 6 7 8 9 10 11 12 13 14 15
599
FTUS41 KPHI 242320
TAFACY
TAF
KACY 242320Z 2500/2524 20010KT P6SM BKN200
      TEMPO 2508/2512 5SM -SHRA BR OVC060
     FM251200 25007KT P6SM BKN060 OVC150
     FM252200 20010KT P6SM SCT040 BKN100=

USA.gov is the U.S. government's official web portal to all federal, state and local government web resources and services.